sensor_id;sensor_type;location;lat;lon;timestamp;temperature;humidity
24522;DHT22;12680;57.804;12.190;2023-07-20T00:01:30;15.00;99.90
24522;DHT22;12680;57.804;12.190;2023-07-20T00:03:56;14.10;99.90
24522;DHT22;12680;57.804;12.190;2023-07-20T00:06:24;14.00;99.90
24522;DHT22;12680;57.804;12.190;2023-07-20T00:08:51;14.00;99.90
24522;DHT22;12680;57.804;12.190;2023-07-20T00:11:18;14.00;99.90
24522;DHT22;12680;57.804;12.190;2023-07-20T00:13:45;14.00;99.90
24522;DHT22;12680;57.804;12.190;2023-07-20T00:16:11;14.00;99.90
24522;DHT22;12680;57.804;12.190;2023-07-20T00:18:38;14.00;99.90
24522;DHT22;12680;57.804;12.190;2023-07-20T00:21:05;14.00;99.90
24522;DHT22;12680;57.804;12.190;2023-07-20T00:23:31;14.00;99.90
24522;DHT22;12680;57.804;12.190;2023-07-20T00:26:01;13.90;99.90
24522;DHT22;12680;57.804;12.190;2023-07-20T00:28:28;13.90;99.90
24522;DHT22;12680;57.804;12.190;2023-07-20T00:30:56;13.90;99.90
24522;DHT22;12680;57.804;12.190;2023-07-20T00:33:23;13.90;99.90
24522;DHT22;12680;57.804;12.190;2023-07-20T00:35:49;13.80;99.90
24522;DHT22;12680;57.804;12.190;2023-07-20T00:38:17;13.90;99.90
24522;DHT22;12680;57.804;12.190;2023-07-20T00:40:44;13.90;99.90
24522;DHT22;12680;57.804;12.190;2023-07-20T00:43:10;13.80;99.90
24522;DHT22;12680;57.804;12.190;2023-07-20T00:45:37;13.90;99.90
24522;DHT22;12680;57.804;12.190;2023-07-20T00:48:05;16.00;99.90
24522;DHT22;12680;57.804;12.190;2023-07-20T00:50:33;13.80;99.90
24522;DHT22;12680;57.804;12.190;2023-07-20T00:53:00;13.80;99.90
24522;DHT22;12680;57.804;12.190;2023-07-20T00:55:28;13.80;99.90
24522;DHT22;12680;57.804;12.190;2023-07-20T00:57:54;13.80;99.90
24522;DHT22;12680;57.804;12.190;2023-07-20T01:00:21;13.80;99.90
24522;DHT22;12680;57.804;12.190;2023-07-20T01:02:47;13.90;99.90
24522;DHT22;12680;57.804;12.190;2023-07-20T01:05:14;13.80;99.90
24522;DHT22;12680;57.804;12.190;2023-07-20T01:07:46;13.80;99.90
24522;DHT22;12680;57.804;12.190;2023-07-20T01:10:25;13.80;99.90
24522;DHT22;12680;57.804;12.190;2023-07-20T01:12:55;13.80;99.90
24522;DHT22;12680;57.804;12.190;2023-07-20T01:15:23;13.70;99.90
24522;DHT22;12680;57.804;12.190;2023-07-20T01:17:49;13.70;99.90
24522;DHT22;12680;57.804;12.190;2023-07-20T01:20:17;13.70;99.90
24522;DHT22;12680;57.804;12.190;2023-07-20T01:25:33;13.70;99.90
24522;DHT22;12680;57.804;12.190;2023-07-20T01:33:35;13.60;99.90
24522;DHT22;12680;57.804;12.190;2023-07-20T01:36:02;13.70;99.90
24522;DHT22;12680;57.804;12.190;2023-07-20T01:38:29;13.60;99.90
24522;DHT22;12680;57.804;12.190;2023-07-20T01:40:56;16.00;99.90
24522;DHT22;12680;57.804;12.190;2023-07-20T01:43:23;13.70;99.90
24522;DHT22;12680;57.804;12.190;2023-07-20T01:45:50;14.50;99.90
24522;DHT22;12680;57.804;12.190;2023-07-20T01:48:17;13.70;99.90
24522;DHT22;12680;57.804;12.190;2023-07-20T01:50:43;13.70;99.90
24522;DHT22;12680;57.804;12.190;2023-07-20T01:53:10;13.70;99.90
24522;DHT22;12680;57.804;12.190;2023-07-20T01:55:37;14.20;99.90
24522;DHT22;12680;57.804;12.190;2023-07-20T01:58:04;13.70;99.90
24522;DHT22;12680;57.804;12.190;2023-07-20T02:00:32;13.70;99.90
24522;DHT22;12680;57.804;12.190;2023-07-20T02:02:59;13.70;99.90
24522;DHT22;12680;57.804;12.190;2023-07-20T02:05:26;13.70;99.90
24522;DHT22;12680;57.804;12.190;2023-07-20T02:07:52;13.70;99.90
24522;DHT22;12680;57.804;12.190;2023-07-20T02:10:19;13.60;99.90
24522;DHT22;12680;57.804;12.190;2023-07-20T02:12:47;13.70;99.90
24522;DHT22;12680;57.804;12.190;2023-07-20T02:15:14;13.70;99.90
24522;DHT22;12680;57.804;12.190;2023-07-20T02:17:42;13.60;99.90
24522;DHT22;12680;57.804;12.190;2023-07-20T02:20:09;13.60;99.90
24522;DHT22;12680;57.804;12.190;2023-07-20T02:22:37;13.60;99.90
24522;DHT22;12680;57.804;12.190;2023-07-20T02:25:04;13.60;99.90
24522;DHT22;12680;57.804;12.190;2023-07-20T02:27:31;13.60;99.90
24522;DHT22;12680;57.804;12.190;2023-07-20T02:29:57;13.60;99.90
24522;DHT22;12680;57.804;12.190;2023-07-20T02:32:24;15.60;99.90
24522;DHT22;12680;57.804;12.190;2023-07-20T02:34:51;13.60;99.90
24522;DHT22;12680;57.804;12.190;2023-07-20T02:37:18;14.80;99.90
24522;DHT22;12680;57.804;12.190;2023-07-20T02:39:44;13.60;99.90
24522;DHT22;12680;57.804;12.190;2023-07-20T02:42:11;15.00;99.90
24522;DHT22;12680;57.804;12.190;2023-07-20T02:44:38;14.90;99.90
24522;DHT22;12680;57.804;12.190;2023-07-20T02:47:05;14.70;99.90
24522;DHT22;12680;57.804;12.190;2023-07-20T02:49:32;13.50;99.90
24522;DHT22;12680;57.804;12.190;2023-07-20T02:51:58;13.50;99.90
24522;DHT22;12680;57.804;12.190;2023-07-20T02:54:25;13.50;99.90
24522;DHT22;12680;57.804;12.190;2023-07-20T02:56:52;14.70;99.90
24522;DHT22;12680;57.804;12.190;2023-07-20T02:59:18;13.60;99.90
24522;DHT22;12680;57.804;12.190;2023-07-20T03:01:45;13.60;99.90
24522;DHT22;12680;57.804;12.190;2023-07-20T03:04:12;13.60;99.90
24522;DHT22;12680;57.804;12.190;2023-07-20T03:06:39;13.70;99.90
24522;DHT22;12680;57.804;12.190;2023-07-20T03:09:05;13.70;99.90
24522;DHT22;12680;57.804;12.190;2023-07-20T03:11:33;13.70;99.90
24522;DHT22;12680;57.804;12.190;2023-07-20T03:14:00;13.70;99.90
24522;DHT22;12680;57.804;12.190;2023-07-20T03:16:27;15.50;99.90
24522;DHT22;12680;57.804;12.190;2023-07-20T03:18:54;13.70;99.90
24522;DHT22;12680;57.804;12.190;2023-07-20T03:21:20;13.70;99.90
24522;DHT22;12680;57.804;12.190;2023-07-20T03:23:47;16.40;99.90
24522;DHT22;12680;57.804;12.190;2023-07-20T03:26:14;13.80;99.90
24522;DHT22;12680;57.804;12.190;2023-07-20T03:28:40;13.80;99.90
24522;DHT22;12680;57.804;12.190;2023-07-20T03:31:07;13.80;99.90
24522;DHT22;12680;57.804;12.190;2023-07-20T03:33:34;13.80;99.90
24522;DHT22;12680;57.804;12.190;2023-07-20T03:36:01;13.90;99.90
24522;DHT22;12680;57.804;12.190;2023-07-20T03:38:27;13.90;99.90
24522;DHT22;12680;57.804;12.190;2023-07-20T03:40:58;13.90;99.90
24522;DHT22;12680;57.804;12.190;2023-07-20T03:43:25;12.90;99.90
24522;DHT22;12680;57.804;12.190;2023-07-20T03:45:52;13.90;99.90
24522;DHT22;12680;57.804;12.190;2023-07-20T03:48:20;13.90;99.90
24522;DHT22;12680;57.804;12.190;2023-07-20T03:50:49;13.90;99.90
24522;DHT22;12680;57.804;12.190;2023-07-20T03:53:15;13.90;99.90
24522;DHT22;12680;57.804;12.190;2023-07-20T03:55:46;13.80;99.90
24522;DHT22;12680;57.804;12.190;2023-07-20T03:58:13;13.80;99.90
24522;DHT22;12680;57.804;12.190;2023-07-20T04:00:44;13.80;99.90
24522;DHT22;12680;57.804;12.190;2023-07-20T04:03:11;13.80;99.90
24522;DHT22;12680;57.804;12.190;2023-07-20T04:05:38;13.70;99.90
24522;DHT22;12680;57.804;12.190;2023-07-20T04:08:05;13.70;99.90
24522;DHT22;12680;57.804;12.190;2023-07-20T04:10:32;13.80;99.90
24522;DHT22;12680;57.804;12.190;2023-07-20T04:12:59;13.70;99.90
24522;DHT22;12680;57.804;12.190;2023-07-20T04:15:26;13.70;99.90
24522;DHT22;12680;57.804;12.190;2023-07-20T04:17:53;13.70;99.90
24522;DHT22;12680;57.804;12.190;2023-07-20T04:20:20;14.00;99.90
24522;DHT22;12680;57.804;12.190;2023-07-20T04:22:47;16.00;99.90
24522;DHT22;12680;57.804;12.190;2023-07-20T04:25:14;13.60;99.90
24522;DHT22;12680;57.804;12.190;2023-07-20T04:27:41;13.60;99.90
24522;DHT22;12680;57.804;12.190;2023-07-20T04:30:08;15.10;99.90
24522;DHT22;12680;57.804;12.190;2023-07-20T04:32:35;13.60;99.90
24522;DHT22;12680;57.804;12.190;2023-07-20T04:35:05;13.70;99.90
24522;DHT22;12680;57.804;12.190;2023-07-20T04:37:32;13.60;99.90
24522;DHT22;12680;57.804;12.190;2023-07-20T04:39:59;13.60;99.90
24522;DHT22;12680;57.804;12.190;2023-07-20T04:42:25;13.60;99.90
24522;DHT22;12680;57.804;12.190;2023-07-20T04:44:52;13.60;99.90
24522;DHT22;12680;57.804;12.190;2023-07-20T04:47:19;13.60;99.90
24522;DHT22;12680;57.804;12.190;2023-07-20T04:49:45;13.60;99.90
24522;DHT22;12680;57.804;12.190;2023-07-20T04:52:12;13.70;99.90
24522;DHT22;12680;57.804;12.190;2023-07-20T04:54:39;13.70;99.90
24522;DHT22;12680;57.804;12.190;2023-07-20T04:57:09;13.80;99.90
24522;DHT22;12680;57.804;12.190;2023-07-20T04:59:37;13.80;99.90
24522;DHT22;12680;57.804;12.190;2023-07-20T05:02:03;13.80;99.90
24522;DHT22;12680;57.804;12.190;2023-07-20T05:04:30;13.80;99.90
24522;DHT22;12680;57.804;12.190;2023-07-20T05:07:04;13.80;99.90
24522;DHT22;12680;57.804;12.190;2023-07-20T05:09:31;13.80;99.90
24522;DHT22;12680;57.804;12.190;2023-07-20T05:11:58;14.30;99.90
24522;DHT22;12680;57.804;12.190;2023-07-20T05:14:24;13.80;99.90
24522;DHT22;12680;57.804;12.190;2023-07-20T05:16:51;14.00;99.90
24522;DHT22;12680;57.804;12.190;2023-07-20T05:19:18;14.00;99.90
24522;DHT22;12680;57.804;12.190;2023-07-20T05:21:44;15.80;99.90
24522;DHT22;12680;57.804;12.190;2023-07-20T05:24:11;14.30;99.90
24522;DHT22;12680;57.804;12.190;2023-07-20T05:26:38;14.40;99.90
24522;DHT22;12680;57.804;12.190;2023-07-20T05:29:04;14.50;99.90
24522;DHT22;12680;57.804;12.190;2023-07-20T05:31:31;14.70;99.90
24522;DHT22;12680;57.804;12.190;2023-07-20T05:33:58;14.80;99.90
24522;DHT22;12680;57.804;12.190;2023-07-20T05:36:25;15.00;99.90
24522;DHT22;12680;57.804;12.190;2023-07-20T05:38:51;15.00;99.80
24522;DHT22;12680;57.804;12.190;2023-07-20T05:41:18;16.70;99.90
24522;DHT22;12680;57.804;12.190;2023-07-20T05:43:45;16.40;99.90
24522;DHT22;12680;57.804;12.190;2023-07-20T05:46:11;15.10;99.50
24522;DHT22;12680;57.804;12.190;2023-07-20T05:48:38;15.10;99.90
24522;DHT22;12680;57.804;12.190;2023-07-20T05:51:05;15.10;99.60
24522;DHT22;12680;57.804;12.190;2023-07-20T05:53:32;15.10;99.70
24522;DHT22;12680;57.804;12.190;2023-07-20T05:55:58;15.10;99.80
24522;DHT22;12680;57.804;12.190;2023-07-20T05:58:25;15.20;99.70
24522;DHT22;12680;57.804;12.190;2023-07-20T06:00:53;15.30;99.50
24522;DHT22;12680;57.804;12.190;2023-07-20T06:03:19;17.50;99.90
24522;DHT22;12680;57.804;12.190;2023-07-20T06:05:48;15.20;99.40
24522;DHT22;12680;57.804;12.190;2023-07-20T06:08:14;16.50;99.50
24522;DHT22;12680;57.804;12.190;2023-07-20T06:10:41;17.10;99.70
24522;DHT22;12680;57.804;12.190;2023-07-20T06:13:11;15.10;99.40
24522;DHT22;12680;57.804;12.190;2023-07-20T06:15:38;17.50;99.90
24522;DHT22;12680;57.804;12.190;2023-07-20T06:18:05;15.10;99.50
24522;DHT22;12680;57.804;12.190;2023-07-20T06:20:32;15.10;99.50
24522;DHT22;12680;57.804;12.190;2023-07-20T06:22:59;17.20;99.90
24522;DHT22;12680;57.804;12.190;2023-07-20T06:25:26;15.30;99.60
24522;DHT22;12680;57.804;12.190;2023-07-20T06:27:54;15.30;99.40
24522;DHT22;12680;57.804;12.190;2023-07-20T06:30:21;17.80;99.90
24522;DHT22;12680;57.804;12.190;2023-07-20T06:32:48;15.40;99.60
24522;DHT22;12680;57.804;12.190;2023-07-20T06:35:15;17.70;99.90
24522;DHT22;12680;57.804;12.190;2023-07-20T06:37:42;15.40;99.50
24522;DHT22;12680;57.804;12.190;2023-07-20T06:40:09;15.60;99.60
24522;DHT22;12680;57.804;12.190;2023-07-20T06:42:39;15.80;99.20
24522;DHT22;12680;57.804;12.190;2023-07-20T06:45:08;16.00;98.90
24522;DHT22;12680;57.804;12.190;2023-07-20T06:47:37;15.70;98.90
24522;DHT22;12680;57.804;12.190;2023-07-20T06:50:05;18.20;99.60
24522;DHT22;12680;57.804;12.190;2023-07-20T06:52:32;15.90;99.20
24522;DHT22;12680;57.804;12.190;2023-07-20T06:54:59;16.80;99.80
24522;DHT22;12680;57.804;12.190;2023-07-20T06:57:30;16.40;99.00
24522;DHT22;12680;57.804;12.190;2023-07-20T06:59:57;16.50;98.90
24522;DHT22;12680;57.804;12.190;2023-07-20T07:02:24;16.60;98.50
24522;DHT22;12680;57.804;12.190;2023-07-20T07:04:51;16.60;98.10
24522;DHT22;12680;57.804;12.190;2023-07-20T07:07:26;16.50;98.00
24522;DHT22;12680;57.804;12.190;2023-07-20T07:09:53;16.30;97.70
24522;DHT22;12680;57.804;12.190;2023-07-20T07:12:20;16.10;97.90
24522;DHT22;12680;57.804;12.190;2023-07-20T07:14:47;17.80;98.90
24522;DHT22;12680;57.804;12.190;2023-07-20T07:17:14;16.30;98.50
24522;DHT22;12680;57.804;12.190;2023-07-20T07:19:45;16.60;98.10
24522;DHT22;12680;57.804;12.190;2023-07-20T07:22:14;16.70;97.50
24522;DHT22;12680;57.804;12.190;2023-07-20T07:24:41;16.70;97.50
24522;DHT22;12680;57.804;12.190;2023-07-20T07:27:08;16.60;97.50
24522;DHT22;12680;57.804;12.190;2023-07-20T07:29:35;16.50;97.20
24522;DHT22;12680;57.804;12.190;2023-07-20T07:32:02;16.30;97.40
24522;DHT22;12680;57.804;12.190;2023-07-20T07:34:29;16.40;97.70
24522;DHT22;12680;57.804;12.190;2023-07-20T07:36:55;16.50;97.50
24522;DHT22;12680;57.804;12.190;2023-07-20T07:39:22;18.20;98.10
24522;DHT22;12680;57.804;12.190;2023-07-20T07:41:53;17.60;97.70
24522;DHT22;12680;57.804;12.190;2023-07-20T07:44:20;16.90;97.40
24522;DHT22;12680;57.804;12.190;2023-07-20T07:46:48;18.20;97.60
24522;DHT22;12680;57.804;12.190;2023-07-20T07:49:15;19.60;97.90
24522;DHT22;12680;57.804;12.190;2023-07-20T07:51:43;17.30;97.10
24522;DHT22;12680;57.804;12.190;2023-07-20T07:54:09;18.60;97.20
24522;DHT22;12680;57.804;12.190;2023-07-20T07:56:36;17.40;96.30
24522;DHT22;12680;57.804;12.190;2023-07-20T07:59:03;17.40;96.60
24522;DHT22;12680;57.804;12.190;2023-07-20T08:01:29;17.50;96.40
24522;DHT22;12680;57.804;12.190;2023-07-20T08:03:56;17.50;95.80
24522;DHT22;12680;57.804;12.190;2023-07-20T08:06:23;17.40;96.00
24522;DHT22;12680;57.804;12.190;2023-07-20T08:08:51;17.50;96.10
24522;DHT22;12680;57.804;12.190;2023-07-20T08:11:18;17.60;96.10
24522;DHT22;12680;57.804;12.190;2023-07-20T08:13:44;17.80;96.20
24522;DHT22;12680;57.804;12.190;2023-07-20T08:16:11;20.30;96.60
24522;DHT22;12680;57.804;12.190;2023-07-20T08:18:38;19.90;96.30
24522;DHT22;12680;57.804;12.190;2023-07-20T08:21:05;18.80;96.00
24522;DHT22;12680;57.804;12.190;2023-07-20T08:23:31;17.80;95.60
24522;DHT22;12680;57.804;12.190;2023-07-20T08:25:58;18.10;96.10
24522;DHT22;12680;57.804;12.190;2023-07-20T08:28:25;19.50;95.70
24522;DHT22;12680;57.804;12.190;2023-07-20T08:30:53;18.50;95.40
24522;DHT22;12680;57.804;12.190;2023-07-20T08:33:20;18.40;94.80
24522;DHT22;12680;57.804;12.190;2023-07-20T08:35:46;18.90;95.20
24522;DHT22;12680;57.804;12.190;2023-07-20T08:38:13;18.30;94.90
24522;DHT22;12680;57.804;12.190;2023-07-20T08:40:41;18.20;94.70
24522;DHT22;12680;57.804;12.190;2023-07-20T08:43:08;18.90;94.90
24522;DHT22;12680;57.804;12.190;2023-07-20T08:45:35;18.40;94.90
24522;DHT22;12680;57.804;12.190;2023-07-20T08:48:03;18.40;94.90
24522;DHT22;12680;57.804;12.190;2023-07-20T08:50:31;18.30;94.60
24522;DHT22;12680;57.804;12.190;2023-07-20T08:52:58;18.20;94.70
24522;DHT22;12680;57.804;12.190;2023-07-20T08:55:25;18.70;94.90
24522;DHT22;12680;57.804;12.190;2023-07-20T08:57:53;20.50;95.90
24522;DHT22;12680;57.804;12.190;2023-07-20T09:00:20;19.40;95.20
24522;DHT22;12680;57.804;12.190;2023-07-20T09:02:52;18.40;94.70
24522;DHT22;12680;57.804;12.190;2023-07-20T09:05:19;18.60;94.50
24522;DHT22;12680;57.804;12.190;2023-07-20T09:07:46;18.70;94.50
24522;DHT22;12680;57.804;12.190;2023-07-20T09:10:13;18.80;94.10
24522;DHT22;12680;57.804;12.190;2023-07-20T09:12:41;18.70;94.40
24522;DHT22;12680;57.804;12.190;2023-07-20T09:15:09;20.60;94.80
24522;DHT22;12680;57.804;12.190;2023-07-20T09:17:36;18.90;94.30
24522;DHT22;12680;57.804;12.190;2023-07-20T09:20:05;21.30;95.00
24522;DHT22;12680;57.804;12.190;2023-07-20T09:22:34;19.10;93.70
24522;DHT22;12680;57.804;12.190;2023-07-20T09:25:01;21.30;94.20
24522;DHT22;12680;57.804;12.190;2023-07-20T09:27:35;19.50;93.70
24522;DHT22;12680;57.804;12.190;2023-07-20T09:30:02;18.70;93.50
24522;DHT22;12680;57.804;12.190;2023-07-20T09:32:31;18.60;93.80
24522;DHT22;12680;57.804;12.190;2023-07-20T09:35:21;21.00;94.70
24522;DHT22;12680;57.804;12.190;2023-07-20T09:37:53;20.30;93.80
24522;DHT22;12680;57.804;12.190;2023-07-20T09:40:40;20.40;94.10
24522;DHT22;12680;57.804;12.190;2023-07-20T09:43:11;20.50;93.80
24522;DHT22;12680;57.804;12.190;2023-07-20T09:45:41;19.00;93.20
24522;DHT22;12680;57.804;12.190;2023-07-20T09:48:13;20.10;93.80
24522;DHT22;12680;57.804;12.190;2023-07-20T09:50:48;19.00;93.20
24522;DHT22;12680;57.804;12.190;2023-07-20T09:53:16;20.40;93.50
24522;DHT22;12680;57.804;12.190;2023-07-20T09:55:45;19.00;93.10
24522;DHT22;12680;57.804;12.190;2023-07-20T09:58:12;19.90;93.00
24522;DHT22;12680;57.804;12.190;2023-07-20T10:00:40;20.00;93.10
24522;DHT22;12680;57.804;12.190;2023-07-20T10:03:13;19.30;92.70
24522;DHT22;12680;57.804;12.190;2023-07-20T10:05:43;19.40;92.60
24522;DHT22;12680;57.804;12.190;2023-07-20T10:08:11;19.60;92.10
24522;DHT22;12680;57.804;12.190;2023-07-20T10:10:41;19.50;92.10
24522;DHT22;12680;57.804;12.190;2023-07-20T10:13:10;20.10;92.50
24522;DHT22;12680;57.804;12.190;2023-07-20T10:15:43;19.60;92.00
24522;DHT22;12680;57.804;12.190;2023-07-20T10:20:46;19.90;91.80
24522;DHT22;12680;57.804;12.190;2023-07-20T10:23:16;21.40;92.30
24522;DHT22;12680;57.804;12.190;2023-07-20T10:25:43;19.90;91.70
24522;DHT22;12680;57.804;12.190;2023-07-20T10:28:10;21.00;91.60
24522;DHT22;12680;57.804;12.190;2023-07-20T10:30:37;20.90;91.80
24522;DHT22;12680;57.804;12.190;2023-07-20T10:33:05;20.10;91.70
24522;DHT22;12680;57.804;12.190;2023-07-20T10:35:54;20.20;91.80
24522;DHT22;12680;57.804;12.190;2023-07-20T10:38:19;21.50;91.80
24522;DHT22;12680;57.804;12.190;2023-07-20T10:40:54;20.60;91.20
24522;DHT22;12680;57.804;12.190;2023-07-20T10:43:21;20.60;91.10
24522;DHT22;12680;57.804;12.190;2023-07-20T10:45:49;21.80;91.10
24522;DHT22;12680;57.804;12.190;2023-07-20T10:48:20;23.00;91.50
24522;DHT22;12680;57.804;12.190;2023-07-20T10:53:33;20.90;91.10
24522;DHT22;12680;57.804;12.190;2023-07-20T10:56:05;21.00;90.60
24522;DHT22;12680;57.804;12.190;2023-07-20T10:58:32;21.10;90.60
24522;DHT22;12680;57.804;12.190;2023-07-20T11:01:00;21.10;90.20
24522;DHT22;12680;57.804;12.190;2023-07-20T11:03:30;21.80;90.60
24522;DHT22;12680;57.804;12.190;2023-07-20T11:08:48;21.00;90.60
24522;DHT22;12680;57.804;12.190;2023-07-20T11:11:26;22.40;90.50
24522;DHT22;12680;57.804;12.190;2023-07-20T11:13:54;20.90;90.10
24522;DHT22;12680;57.804;12.190;2023-07-20T11:16:35;23.40;90.80
24522;DHT22;12680;57.804;12.190;2023-07-20T11:19:02;21.00;90.10
24522;DHT22;12680;57.804;12.190;2023-07-20T11:21:39;22.90;90.60
24522;DHT22;12680;57.804;12.190;2023-07-20T11:24:25;22.20;90.50
24522;DHT22;12680;57.804;12.190;2023-07-20T11:26:53;22.00;90.20
24522;DHT22;12680;57.804;12.190;2023-07-20T11:29:20;21.80;90.10
24522;DHT22;12680;57.804;12.190;2023-07-20T11:31:58;20.80;89.00
24522;DHT22;12680;57.804;12.190;2023-07-20T11:34:30;20.80;90.10
24522;DHT22;12680;57.804;12.190;2023-07-20T11:36:58;21.70;90.60
24522;DHT22;12680;57.804;12.190;2023-07-20T11:39:28;22.20;91.10
24522;DHT22;12680;57.804;12.190;2023-07-20T11:41:55;20.70;90.50
24522;DHT22;12680;57.804;12.190;2023-07-20T11:44:22;20.70;90.40
24522;DHT22;12680;57.804;12.190;2023-07-20T11:47:02;20.80;90.40
24522;DHT22;12680;57.804;12.190;2023-07-20T11:49:34;20.90;90.00
24522;DHT22;12680;57.804;12.190;2023-07-20T11:52:02;20.80;90.10
24522;DHT22;12680;57.804;12.190;2023-07-20T11:54:29;20.70;90.20
24522;DHT22;12680;57.804;12.190;2023-07-20T11:56:56;20.70;90.20
24522;DHT22;12680;57.804;12.190;2023-07-20T11:59:23;21.20;90.50
24522;DHT22;12680;57.804;12.190;2023-07-20T12:01:50;21.30;90.60
24522;DHT22;12680;57.804;12.190;2023-07-20T12:04:17;21.60;90.80
24522;DHT22;12680;57.804;12.190;2023-07-20T12:06:44;21.80;90.70
24522;DHT22;12680;57.804;12.190;2023-07-20T12:09:13;21.00;90.50
24522;DHT22;12680;57.804;12.190;2023-07-20T12:11:40;22.60;90.90
24522;DHT22;12680;57.804;12.190;2023-07-20T12:14:07;22.70;90.80
24522;DHT22;12680;57.804;12.190;2023-07-20T12:16:43;22.00;90.70
24522;DHT22;12680;57.804;12.190;2023-07-20T12:19:10;21.10;90.40
24522;DHT22;12680;57.804;12.190;2023-07-20T12:21:38;20.90;90.30
24522;DHT22;12680;57.804;12.190;2023-07-20T12:24:06;22.40;90.90
24522;DHT22;12680;57.804;12.190;2023-07-20T12:26:33;21.10;90.60
24522;DHT22;12680;57.804;12.190;2023-07-20T12:29:00;21.10;90.00
24522;DHT22;12680;57.804;12.190;2023-07-20T12:31:27;23.20;90.60
24522;DHT22;12680;57.804;12.190;2023-07-20T12:33:54;21.00;90.00
24522;DHT22;12680;57.804;12.190;2023-07-20T12:36:24;22.50;90.40
24522;DHT22;12680;57.804;12.190;2023-07-20T12:38:51;21.30;90.40
24522;DHT22;12680;57.804;12.190;2023-07-20T12:41:18;22.70;91.30
24522;DHT22;12680;57.804;12.190;2023-07-20T12:43:45;23.00;91.70
24522;DHT22;12680;57.804;12.190;2023-07-20T12:46:12;20.90;90.90
24522;DHT22;12680;57.804;12.190;2023-07-20T12:48:40;22.00;91.10
24522;DHT22;12680;57.804;12.190;2023-07-20T12:51:11;21.90;91.30
24522;DHT22;12680;57.804;12.190;2023-07-20T12:53:38;21.20;90.60
24522;DHT22;12680;57.804;12.190;2023-07-20T12:56:05;21.90;90.60
24522;DHT22;12680;57.804;12.190;2023-07-20T12:58:35;21.60;90.60
24522;DHT22;12680;57.804;12.190;2023-07-20T13:01:03;20.60;90.70
24522;DHT22;12680;57.804;12.190;2023-07-20T13:03:30;20.60;90.90
24522;DHT22;12680;57.804;12.190;2023-07-20T13:05:59;21.20;91.30
24522;DHT22;12680;57.804;12.190;2023-07-20T13:08:28;20.30;91.30
24522;DHT22;12680;57.804;12.190;2023-07-20T13:10:55;21.90;91.90
24522;DHT22;12680;57.804;12.190;2023-07-20T13:13:22;21.20;91.60
24522;DHT22;12680;57.804;12.190;2023-07-20T13:15:48;21.30;91.70
24522;DHT22;12680;57.804;12.190;2023-07-20T13:18:15;22.40;91.90
24522;DHT22;12680;57.804;12.190;2023-07-20T13:20:42;21.80;91.50
24522;DHT22;12680;57.804;12.190;2023-07-20T13:23:09;22.10;91.20
24522;DHT22;12680;57.804;12.190;2023-07-20T13:25:35;22.20;91.30
24522;DHT22;12680;57.804;12.190;2023-07-20T13:28:02;20.90;90.80
24522;DHT22;12680;57.804;12.190;2023-07-20T13:30:29;20.90;90.90
24522;DHT22;12680;57.804;12.190;2023-07-20T13:32:56;20.80;90.70
24522;DHT22;12680;57.804;12.190;2023-07-20T13:35:23;20.60;90.70
24522;DHT22;12680;57.804;12.190;2023-07-20T13:37:49;20.60;91.10
24522;DHT22;12680;57.804;12.190;2023-07-20T13:40:16;20.90;90.90
24522;DHT22;12680;57.804;12.190;2023-07-20T13:42:45;20.60;91.10
24522;DHT22;12680;57.804;12.190;2023-07-20T13:45:11;20.70;90.90
24522;DHT22;12680;57.804;12.190;2023-07-20T13:47:39;20.90;90.90
24522;DHT22;12680;57.804;12.190;2023-07-20T13:50:06;20.70;90.80
24522;DHT22;12680;57.804;12.190;2023-07-20T13:52:33;20.70;90.90
24522;DHT22;12680;57.804;12.190;2023-07-20T13:55:04;22.40;91.40
24522;DHT22;12680;57.804;12.190;2023-07-20T13:57:31;20.50;90.80
24522;DHT22;12680;57.804;12.190;2023-07-20T14:00:01;22.00;91.50
24522;DHT22;12680;57.804;12.190;2023-07-20T14:02:28;21.30;91.40
24522;DHT22;12680;57.804;12.190;2023-07-20T14:04:58;21.10;91.50
24522;DHT22;12680;57.804;12.190;2023-07-20T14:07:29;21.20;91.70
24522;DHT22;12680;57.804;12.190;2023-07-20T14:09:56;20.50;91.50
24522;DHT22;12680;57.804;12.190;2023-07-20T14:12:25;21.60;91.60
24522;DHT22;12680;57.804;12.190;2023-07-20T14:14:53;20.70;91.40
24522;DHT22;12680;57.804;12.190;2023-07-20T14:17:20;21.10;91.60
24522;DHT22;12680;57.804;12.190;2023-07-20T14:19:46;22.10;91.80
24522;DHT22;12680;57.804;12.190;2023-07-20T14:22:13;20.50;91.20
24522;DHT22;12680;57.804;12.190;2023-07-20T14:24:40;20.40;91.20
24522;DHT22;12680;57.804;12.190;2023-07-20T14:27:07;21.70;92.10
24522;DHT22;12680;57.804;12.190;2023-07-20T14:29:34;22.00;92.50
24522;DHT22;12680;57.804;12.190;2023-07-20T14:32:03;20.10;91.80
24522;DHT22;12680;57.804;12.190;2023-07-20T14:34:32;20.20;92.00
24522;DHT22;12680;57.804;12.190;2023-07-20T14:37:03;20.20;91.80
24522;DHT22;12680;57.804;12.190;2023-07-20T14:39:30;20.00;92.00
24522;DHT22;12680;57.804;12.190;2023-07-20T14:41:58;20.10;92.20
24522;DHT22;12680;57.804;12.190;2023-07-20T14:44:24;20.30;91.80
24522;DHT22;12680;57.804;12.190;2023-07-20T14:46:51;20.30;91.60
24522;DHT22;12680;57.804;12.190;2023-07-20T14:49:38;21.30;91.80
24522;DHT22;12680;57.804;12.190;2023-07-20T14:52:04;21.00;91.70
24522;DHT22;12680;57.804;12.190;2023-07-20T14:54:41;20.40;91.40
24522;DHT22;12680;57.804;12.190;2023-07-20T14:57:07;21.60;91.80
24522;DHT22;12680;57.804;12.190;2023-07-20T14:59:40;21.90;91.60
24522;DHT22;12680;57.804;12.190;2023-07-20T15:02:08;20.20;91.30
24522;DHT22;12680;57.804;12.190;2023-07-20T15:04:35;22.40;92.40
24522;DHT22;12680;57.804;12.190;2023-07-20T15:07:01;21.80;92.10
24522;DHT22;12680;57.804;12.190;2023-07-20T15:09:29;20.30;91.70
24522;DHT22;12680;57.804;12.190;2023-07-20T15:11:56;22.20;92.30
24522;DHT22;12680;57.804;12.190;2023-07-20T15:14:22;20.90;92.10
24522;DHT22;12680;57.804;12.190;2023-07-20T15:16:49;20.20;92.00
24522;DHT22;12680;57.804;12.190;2023-07-20T15:19:16;21.80;92.30
24522;DHT22;12680;57.804;12.190;2023-07-20T15:21:43;21.50;91.70
24522;DHT22;12680;57.804;12.190;2023-07-20T15:24:10;21.10;91.70
24522;DHT22;12680;57.804;12.190;2023-07-20T15:26:37;22.20;92.00
24522;DHT22;12680;57.804;12.190;2023-07-20T15:29:03;22.60;92.30
24522;DHT22;12680;57.804;12.190;2023-07-20T15:31:30;21.00;91.80
24522;DHT22;12680;57.804;12.190;2023-07-20T15:34:00;20.00;91.60
24522;DHT22;12680;57.804;12.190;2023-07-20T15:36:26;20.60;92.00